Ana Sayfa
METAR-TAF:

METAR-TAF

Havaalanları :

Akron, Ohio, Amerika Birleşik Devletleri

Enlem: 41-02-15N, Boylam: 081-27-51W, yükseklik: 325 m

Güncel hava durumu gözlemi

Rapor saat 14:54 UTC de 32 dakika önce yapıldı.
Rüzgar batı/güneybatıdan 7 kt
Sıcaklık 25°C
Nem 74%
Basınç 1015 hPa
Görüş mesafesi: 16.1 km
1500 ft yükseklikte çok bulutlu

METAR: KAKR 211454Z AUTO 25007KT 10SM OVC015 25/20 A2996 RMK AO2 SLP137 T02500200 55001

Saat: 11:26 (15:26 UTC)


TAF: eksik

4.000'den fazla havaalanı için hava durumu gözlemleri ve tahminleri (METAR ve TAF raporları).

Kullanılabilir istasyonlar harita üzerinde sarı ve kırmızı noktalarla gösterilir.

İstasyonun adını görmek için fareyi noktanın üzerinde gezdirin.

Sonrasında hava gözlem ve tahminlerini görmek için tıklayın.

Haritayı değiştirmek için: yaklaştırmak için siyah artı işaretli yeşil düğmeye ve uzaklaştırmak için de eksi işaretli düğmeye hızla tıklayın; bitişik haritalar için yeşil okları kullanın.


METAR-TAF: